Archival Weather

General Ignacio P Garcia Intl

General Ignacio P Garcia Intl, Mexico (MMHO)

Report from: Wednesday, December 6, 2023 4:40 PM CST
Current time: Friday, February 23, 2024 2:35 PM CST

Current weather – Weather history – Daily summaries
Weather forecast

Temperature31.0°C (87.8°F)
Heat index29.0°C (84.1°F)
Dew point-6.0°C (21.2°F)
Winds 4 kts (2.1 m/s, 4.6 mph) Southwest (220°)
Visibility10 mi. (16.1 km)
Clouds Scattered clouds 20,000 ft. (6,096 m)
Altimeter29.99 in.Hg (1016 mB)
Relative humidity9 %
Density altitude1,823 ft. (556 m)
Flight conditions Visual Meteorological Conditions
Raw dataMMHO 062240Z 22004KT 10SM SCT200 31/M06 A2999 RMK 8/008 HZY
An error has occurred. This application may no longer respond until reloaded. Reload 🗙